createdAt,value
2018-11-13T00:01:20.754Z,85.50
2018-11-13T00:03:50.386Z,85.10
2018-11-13T00:06:20.097Z,80.03
2018-11-13T00:08:49.884Z,81.80
2018-11-13T00:11:19.611Z,68.87
2018-11-13T00:13:49.198Z,71.57
2018-11-13T00:16:18.848Z,74.87
2018-11-13T00:18:48.479Z,84.70
2018-11-13T00:21:18.097Z,89.80
2018-11-13T00:23:47.758Z,102.27
2018-11-13T00:26:17.415Z,87.03
2018-11-13T00:28:47.018Z,93.90
2018-11-13T00:31:16.686Z,109.13
2018-11-13T00:33:46.296Z,98.80
2018-11-13T00:36:16.043Z,104.83
2018-11-13T00:38:45.727Z,104.87
2018-11-13T00:41:15.368Z,119.37
2018-11-13T00:43:44.962Z,111.03
2018-11-13T00:46:14.697Z,98.00
2018-11-13T00:48:44.307Z,93.70
2018-11-13T00:51:13.907Z,86.83
2018-11-13T00:53:43.598Z,101.30
2018-11-13T00:56:13.199Z,92.97
2018-11-13T00:58:42.914Z,97.47
2018-11-13T01:01:12.657Z,80.93
2018-11-13T01:03:42.222Z,82.07
2018-11-13T01:06:11.838Z,90.70
2018-11-13T01:08:41.514Z,97.57
2018-11-13T01:11:11.164Z,104.83
2018-11-13T01:13:41.183Z,106.27
2018-11-13T01:16:10.827Z,94.50
2018-11-13T01:18:40.553Z,89.50
2018-11-13T01:21:10.224Z,89.33
2018-11-13T01:23:39.888Z,96.97
2018-11-13T01:26:09.477Z,80.30
2018-11-13T01:28:39.146Z,91.33
2018-11-13T01:31:08.806Z,90.83
2018-11-13T01:33:38.720Z,89.97
2018-11-13T01:36:08.354Z,81.93
2018-11-13T01:38:37.997Z,80.03
2018-11-13T01:41:07.676Z,85.33
2018-11-13T01:43:37.356Z,88.10
2018-11-13T01:46:07.430Z,82.43
2018-11-13T01:48:37.102Z,83.80
2018-11-13T01:51:06.787Z,86.20
2018-11-13T01:53:36.426Z,82.23
2018-11-13T01:56:06.923Z,81.60
2018-11-13T01:58:36.501Z,84.27
2018-11-13T02:01:06.172Z,83.30
2018-11-13T02:03:35.840Z,77.97
2018-11-13T02:06:06.457Z,89.13
2018-11-13T02:08:36.076Z,90.03
2018-11-13T02:11:05.981Z,83.67
2018-11-13T02:13:35.610Z,88.67
2018-11-13T02:16:05.597Z,94.40
2018-11-13T02:18:35.254Z,87.17
2018-11-13T02:21:04.917Z,90.00
2018-11-13T02:23:34.506Z,86.20
2018-11-13T02:26:04.136Z,90.87
2018-11-13T02:28:33.774Z,87.30
2018-11-13T02:31:03.447Z,89.77
2018-11-13T02:33:33.061Z,84.20
2018-11-13T02:36:02.727Z,92.40
2018-11-13T02:38:32.343Z,94.67
2018-11-13T02:41:02.127Z,82.03
2018-11-13T02:43:31.735Z,91.60
2018-11-13T02:46:01.310Z,89.80
2018-11-13T02:48:30.977Z,86.77
2018-11-13T02:51:00.637Z,83.30
2018-11-13T02:53:30.280Z,90.63
2018-11-13T02:56:00.023Z,99.27
2018-11-13T02:58:29.790Z,91.20
2018-11-13T03:00:59.544Z,93.63
2018-11-13T03:03:29.215Z,91.20
2018-11-13T03:05:58.931Z,84.20
2018-11-13T03:08:28.563Z,91.30
2018-11-13T03:10:58.187Z,90.90
2018-11-13T03:13:27.887Z,86.43
2018-11-13T03:15:57.591Z,86.80
2018-11-13T03:18:27.217Z,90.70
2018-11-13T03:20:56.857Z,85.50
2018-11-13T03:23:26.511Z,89.00
2018-11-13T03:25:56.213Z,86.13
2018-11-13T03:28:25.921Z,96.13
2018-11-13T03:30:55.670Z,86.33
2018-11-13T03:33:25.236Z,86.23
2018-11-13T03:35:54.880Z,106.27
2018-11-13T03:38:24.506Z,102.27
2018-11-13T03:40:54.117Z,92.63
2018-11-13T03:43:23.861Z,96.50
2018-11-13T03:45:53.516Z,87.73
2018-11-13T03:48:23.174Z,99.37
2018-11-13T03:50:53.047Z,97.17
2018-11-13T03:53:22.686Z,104.53
2018-11-13T03:55:52.267Z,88.73
2018-11-13T03:58:21.958Z,98.93
2018-11-13T04:00:51.615Z,107.00
2018-11-13T04:03:21.318Z,110.57
2018-11-13T04:05:50.942Z,106.77
2018-11-13T04:08:20.557Z,116.27
2018-11-13T04:10:50.170Z,109.63
2018-11-13T04:13:19.952Z,120.10
2018-11-13T04:15:49.663Z,121.50
2018-11-13T04:18:19.373Z,149.67
2018-11-13T04:20:48.971Z,136.53
2018-11-13T04:23:18.597Z,126.10
2018-11-13T04:25:48.591Z,139.83
2018-11-13T04:28:18.218Z,98.03
2018-11-13T04:30:47.919Z,99.10
2018-11-13T04:33:17.547Z,101.67
2018-11-13T04:35:47.280Z,111.67
2018-11-13T04:38:16.946Z,134.43
2018-11-13T04:40:46.555Z,131.53
2018-11-13T04:43:16.158Z,114.33
2018-11-13T04:45:45.847Z,111.23
2018-11-13T04:48:15.557Z,107.93
2018-11-13T04:50:45.160Z,117.80
2018-11-13T04:53:14.838Z,137.07
2018-11-13T04:55:44.477Z,123.40
2018-11-13T04:58:14.097Z,133.37
2018-11-13T05:00:43.747Z,161.27
2018-11-13T05:03:13.414Z,144.33
2018-11-13T05:05:43.066Z,135.37
2018-11-13T05:08:12.823Z,131.27
2018-11-13T05:10:42.522Z,114.97
2018-11-13T05:13:12.149Z,130.93
2018-11-13T05:15:41.796Z,141.07
2018-11-13T05:18:12.065Z,130.33
2018-11-13T05:20:41.875Z,109.23
2018-11-13T05:23:11.749Z,112.13
2018-11-13T05:25:41.283Z,119.43
2018-11-13T05:28:15.414Z,110.63
2018-11-13T05:30:46.281Z,124.67
2018-11-13T05:33:16.052Z,101.57
2018-11-13T05:35:45.923Z,104.03
2018-11-13T05:38:17.457Z,108.33
2018-11-13T05:40:47.212Z,104.40
2018-11-13T05:43:16.920Z,111.43
2018-11-13T05:45:46.527Z,120.77
2018-11-13T05:48:16.235Z,119.13
2018-11-13T05:50:45.849Z,122.40
2018-11-13T05:53:15.552Z,131.73
2018-11-13T05:55:45.256Z,138.97
2018-11-13T05:58:14.959Z,129.97
2018-11-13T06:00:44.684Z,140.17
2018-11-13T06:03:14.388Z,123.10
2018-11-13T06:05:43.988Z,105.77
2018-11-13T06:08:15.337Z,115.63
2018-11-13T06:10:45.352Z,107.03
2018-11-13T06:13:15.263Z,112.23
2018-11-13T06:15:44.955Z,111.97
2018-11-13T06:18:14.643Z,113.10
2018-11-13T06:20:44.212Z,108.87
2018-11-13T06:23:13.995Z,99.43
2018-11-13T06:25:43.711Z,94.87
2018-11-13T06:28:13.285Z,89.73
2018-11-13T06:30:43.016Z,86.07
2018-11-13T06:33:12.646Z,89.33
2018-11-13T06:35:42.248Z,81.33
2018-11-13T06:38:12.044Z,78.80
2018-11-13T06:40:41.752Z,76.93
2018-11-13T06:43:11.464Z,75.53
2018-11-13T06:45:41.084Z,76.63
2018-11-13T06:48:10.783Z,69.70
2018-11-13T06:50:40.430Z,65.23
2018-11-13T06:53:10.182Z,70.97
2018-11-13T06:55:41.794Z,69.53
2018-11-13T06:58:11.372Z,73.73
2018-11-13T07:00:41.076Z,70.27
2018-11-13T07:03:10.918Z,82.03
2018-11-13T07:05:40.604Z,63.03
2018-11-13T07:08:10.275Z,71.23
2018-11-13T07:10:40.043Z,63.57
2018-11-13T07:13:09.724Z,65.97
2018-11-13T07:15:39.464Z,62.27
2018-11-13T07:18:09.096Z,59.33
2018-11-13T07:20:38.697Z,57.73
2018-11-13T07:23:08.433Z,53.87
2018-11-13T07:25:38.082Z,55.80
2018-11-13T07:28:07.740Z,49.50
2018-11-13T07:30:37.993Z,50.23
2018-11-13T07:33:07.607Z,46.17
2018-11-13T07:35:37.646Z,47.90
2018-11-13T07:38:07.264Z,43.57
2018-11-13T07:40:36.984Z,44.27
2018-11-13T07:43:07.016Z,44.07
2018-11-13T07:45:36.663Z,45.43
2018-11-13T07:48:07.204Z,45.63
2018-11-13T07:50:36.766Z,47.00
2018-11-13T07:53:06.453Z,46.77
2018-11-13T07:55:36.167Z,46.17
2018-11-13T07:58:05.919Z,46.10
2018-11-13T08:00:35.516Z,42.27
2018-11-13T08:03:18.354Z,41.83
2018-11-13T08:05:48.079Z,47.83
2018-11-13T08:08:17.623Z,41.87
2018-11-13T08:10:47.235Z,48.30
2018-11-13T08:13:17.087Z,48.70
2018-11-13T08:15:46.559Z,49.27
2018-11-13T08:18:16.190Z,50.17
2018-11-13T08:20:45.817Z,49.97
2018-11-13T08:23:15.450Z,51.77
2018-11-13T08:25:45.241Z,51.83
2018-11-13T08:28:14.884Z,54.70
2018-11-13T08:30:44.477Z,47.87
2018-11-13T08:33:14.127Z,51.10
2018-11-13T08:35:43.847Z,51.77
2018-11-13T08:38:13.398Z,49.37
2018-11-13T08:40:43.102Z,53.63
2018-11-13T08:43:12.759Z,49.73
2018-11-13T08:45:42.381Z,50.00
2018-11-13T08:48:12.016Z,52.57
2018-11-13T08:50:41.716Z,49.73
2018-11-13T08:53:11.262Z,45.13
2018-11-13T08:55:40.904Z,44.35
2018-11-13T08:58:10.567Z,44.57
2018-11-13T09:00:40.152Z,47.63
2018-11-13T09:03:09.845Z,47.53
2018-11-13T09:05:39.466Z,43.23
2018-11-13T09:08:09.177Z,43.63
2018-11-13T09:10:39.339Z,44.00
2018-11-13T09:13:08.697Z,44.97
2018-11-13T09:15:38.307Z,40.00
2018-11-13T09:18:08.402Z,39.70
2018-11-13T09:20:37.919Z,43.20
2018-11-13T09:23:07.493Z,36.70
2018-11-13T09:25:37.127Z,41.77
2018-11-13T09:28:07.664Z,40.10
2018-11-13T09:30:37.406Z,42.37
2018-11-13T09:33:07.079Z,42.50
2018-11-13T09:35:36.689Z,35.73
2018-11-13T09:38:09.523Z,33.47
2018-11-13T09:40:39.135Z,35.00
2018-11-13T09:43:08.781Z,34.70
2018-11-13T09:45:38.474Z,33.90
2018-11-13T09:48:08.096Z,36.50
2018-11-13T09:50:37.775Z,40.17
2018-11-13T09:53:07.406Z,41.20
2018-11-13T09:55:37.044Z,43.77
2018-11-13T09:58:07.057Z,41.07
2018-11-13T10:00:36.660Z,46.33
2018-11-13T10:03:07.353Z,43.47
2018-11-13T10:05:36.601Z,44.07
2018-11-13T10:08:06.175Z,43.20
2018-11-13T10:10:35.835Z,41.20
2018-11-13T10:13:05.581Z,44.37
2018-11-13T10:15:35.192Z,50.57
2018-11-13T10:18:04.934Z,61.30
2018-11-13T10:20:34.509Z,71.53
2018-11-13T10:23:04.215Z,59.57
2018-11-13T10:25:33.931Z,58.20
2018-11-13T10:28:03.552Z,47.97
2018-11-13T10:30:33.253Z,47.80
2018-11-13T10:33:02.863Z,65.60
2018-11-13T10:35:32.463Z,64.10
2018-11-13T10:38:02.156Z,43.87
2018-11-13T10:40:31.973Z,42.47
2018-11-13T10:43:01.580Z,43.60
2018-11-13T10:45:31.179Z,46.73
2018-11-13T10:48:00.833Z,50.07
2018-11-13T10:50:30.529Z,45.17
2018-11-13T10:53:00.107Z,45.13
2018-11-13T10:55:29.712Z,46.43
2018-11-13T10:57:59.328Z,37.97
2018-11-13T11:00:33.230Z,40.27
2018-11-13T11:03:05.962Z,40.27
2018-11-13T11:05:35.441Z,42.73
2018-11-13T11:08:06.249Z,43.92
2018-11-13T11:10:35.852Z,44.70
2018-11-13T11:13:06.718Z,48.47
2018-11-13T11:15:39.253Z,43.93
2018-11-13T11:18:08.878Z,46.20
2018-11-13T11:20:38.461Z,48.13
2018-11-13T11:23:08.193Z,44.17
2018-11-13T11:25:37.879Z,50.63
2018-11-13T11:28:07.518Z,45.40
2018-11-13T11:30:37.102Z,45.60
2018-11-13T11:33:07.178Z,48.80
2018-11-13T11:35:36.819Z,45.30
2018-11-13T11:38:07.080Z,44.37
2018-11-13T11:40:36.706Z,48.30
2018-11-13T11:43:06.990Z,49.00
2018-11-13T11:45:36.595Z,53.23
2018-11-13T11:48:06.484Z,59.13
2018-11-13T11:50:36.189Z,48.83
2018-11-13T11:53:05.901Z,45.40
2018-11-13T11:55:35.505Z,49.10
2018-11-13T11:58:05.403Z,55.30
2018-11-13T12:00:35.946Z,53.40
2018-11-13T12:03:05.818Z,47.73
2018-11-13T12:05:36.366Z,47.57
2018-11-13T12:08:06.194Z,43.00
2018-11-13T12:10:35.839Z,48.70
2018-11-13T12:13:05.920Z,44.20
2018-11-13T12:15:35.483Z,46.77
2018-11-13T12:18:05.512Z,47.80
2018-11-13T12:20:35.136Z,50.43
2018-11-13T12:23:04.833Z,44.47
2018-11-13T12:25:34.476Z,43.77
2018-11-13T12:28:04.275Z,48.37
2018-11-13T12:30:33.887Z,48.23
2018-11-13T12:33:03.590Z,45.93
2018-11-13T12:35:33.295Z,44.27
2018-11-13T12:38:04.065Z,46.90
2018-11-13T12:40:33.750Z,46.57
2018-11-13T12:43:03.284Z,46.57
2018-11-13T12:45:32.948Z,49.17
2018-11-13T12:48:02.655Z,46.63
2018-11-13T12:50:36.256Z,49.33
2018-11-13T12:53:06.040Z,45.73
2018-11-13T12:55:35.738Z,44.03
2018-11-13T12:58:05.541Z,47.50
2018-11-13T13:00:35.153Z,46.13
2018-11-13T13:03:04.799Z,48.87
2018-11-13T13:05:34.439Z,41.17
2018-11-13T13:08:04.116Z,48.60
2018-11-13T13:10:33.821Z,50.10
2018-11-13T13:13:03.439Z,52.60
2018-11-13T13:15:33.753Z,49.30
2018-11-13T13:18:03.353Z,34.73
2018-11-13T13:20:32.973Z,36.97
2018-11-13T13:23:02.570Z,40.20
2018-11-13T13:25:32.297Z,35.63
2018-11-13T13:28:02.197Z,29.73
2018-11-13T13:30:31.828Z,23.47
2018-11-13T13:33:01.441Z,27.77
2018-11-13T13:35:44.786Z,25.67
2018-11-13T13:38:14.538Z,24.83
2018-11-13T13:40:45.238Z,28.77
2018-11-13T13:43:15.493Z,24.60
2018-11-13T13:45:46.114Z,25.97
2018-11-13T13:48:16.015Z,26.37
2018-11-13T13:50:45.613Z,16.80
2018-11-13T13:53:16.370Z,18.67
2018-11-13T13:55:46.284Z,19.47
2018-11-13T13:58:16.608Z,26.60
2018-11-13T14:00:46.317Z,26.40
2018-11-13T14:03:16.360Z,26.40
2018-11-13T14:05:46.472Z,31.50
2018-11-13T14:08:16.668Z,35.65
2018-11-13T14:10:46.326Z,34.80
2018-11-13T14:13:16.255Z,36.60
2018-11-13T14:15:45.962Z,42.83
2018-11-13T14:18:15.535Z,26.03
2018-11-13T14:20:45.250Z,30.13
2018-11-13T14:23:14.871Z,30.73
2018-11-13T14:25:44.509Z,29.23
2018-11-13T14:28:14.164Z,30.50
2018-11-13T14:30:43.779Z,34.17
2018-11-13T14:33:13.972Z,38.47
2018-11-13T14:35:43.848Z,46.97
2018-11-13T14:38:13.382Z,43.03
2018-11-13T14:40:44.374Z,33.17
2018-11-13T14:43:14.304Z,35.57
2018-11-13T14:45:44.554Z,28.53
2018-11-13T14:48:14.293Z,27.03
2018-11-13T14:50:44.376Z,27.17
2018-11-13T14:53:14.441Z,29.83
2018-11-13T14:55:45.702Z,25.13
2018-11-13T14:58:16.580Z,26.97
2018-11-13T15:00:46.204Z,25.80
2018-11-13T15:03:17.137Z,19.20
2018-11-13T15:05:46.822Z,25.30
2018-11-13T15:08:16.496Z,25.30
2018-11-13T15:10:47.752Z,27.33
2018-11-13T15:13:17.985Z,28.53
2018-11-13T15:15:47.745Z,31.77
2018-11-13T15:18:17.447Z,35.80
2018-11-13T15:20:47.908Z,34.60
2018-11-13T15:23:17.662Z,33.43
2018-11-13T15:25:47.363Z,37.60
2018-11-13T15:28:17.035Z,31.07
2018-11-13T15:30:49.182Z,41.07
2018-11-13T15:33:22.034Z,29.43
2018-11-13T15:35:51.668Z,37.70
2018-11-13T15:38:21.300Z,47.77
2018-11-13T15:40:51.030Z,48.63
2018-11-13T15:43:20.799Z,53.53
2018-11-13T15:45:50.484Z,51.90
2018-11-13T15:48:20.169Z,49.90
2018-11-13T15:50:49.765Z,51.73
2018-11-13T15:53:19.410Z,59.57
2018-11-13T15:55:49.188Z,60.43
2018-11-13T15:58:18.833Z,46.17
2018-11-13T16:00:48.531Z,64.30
2018-11-13T16:03:27.930Z,45.30
2018-11-13T16:05:58.263Z,58.90
2018-11-13T16:08:27.969Z,73.07
2018-11-13T16:10:57.587Z,60.17
2018-11-13T16:13:27.325Z,53.90
2018-11-13T16:15:57.092Z,40.10
2018-11-13T16:18:28.139Z,44.97
2018-11-13T16:20:57.820Z,72.27
2018-11-13T16:23:27.482Z,57.60
2018-11-13T16:25:57.253Z,56.23
2018-11-13T16:28:26.868Z,41.20
2018-11-13T16:30:56.752Z,59.83
2018-11-13T16:33:26.435Z,54.00
2018-11-13T16:35:57.488Z,69.23
2018-11-13T16:38:27.214Z,52.33
2018-11-13T16:40:56.867Z,57.63
2018-11-13T16:43:26.495Z,59.57
2018-11-13T16:45:56.132Z,54.77
2018-11-13T16:48:26.021Z,52.87
2018-11-13T16:50:55.584Z,39.53
2018-11-13T16:53:25.376Z,42.93
2018-11-13T16:55:59.117Z,34.83
2018-11-13T16:58:28.993Z,32.40
2018-11-13T17:01:04.875Z,41.13
2018-11-13T17:03:34.590Z,26.10
2018-11-13T17:06:04.412Z,40.27
2018-11-13T17:08:34.123Z,24.27
2018-11-13T17:11:03.911Z,31.03
2018-11-13T17:13:33.665Z,22.37
2018-11-13T17:16:03.403Z,26.13
2018-11-13T17:18:33.517Z,26.23
2018-11-13T17:21:03.328Z,20.03
2018-11-13T17:23:34.439Z,27.17
2018-11-13T17:26:05.178Z,30.20
2018-11-13T17:28:38.080Z,32.43
2018-11-13T17:31:11.766Z,33.63
2018-11-13T17:33:44.155Z,41.77
2018-11-13T17:36:13.973Z,39.10
2018-11-13T17:38:43.945Z,38.43
2018-11-13T17:41:13.635Z,45.07
2018-11-13T17:43:43.407Z,42.93
2018-11-13T17:46:13.827Z,45.37
2018-11-13T17:48:43.559Z,46.70
2018-11-13T17:51:17.505Z,47.40
2018-11-13T17:53:47.211Z,49.67
2018-11-13T17:56:16.851Z,53.40
2018-11-13T17:58:46.593Z,53.67
2018-11-13T18:01:23.442Z,58.23
2018-11-13T18:03:53.197Z,70.73
2018-11-13T18:06:23.062Z,71.70
2018-11-13T18:08:52.837Z,59.20
2018-11-13T18:11:22.596Z,66.03
2018-11-13T18:13:53.542Z,63.67
2018-11-13T18:16:24.340Z,67.17
2018-11-13T18:18:54.274Z,62.47
2018-11-13T18:21:27.030Z,70.30
2018-11-13T18:23:57.825Z,68.47
2018-11-13T18:26:33.541Z,72.50
2018-11-13T18:29:06.525Z,77.53
2018-11-13T18:31:41.251Z,81.07
2018-11-13T18:34:11.297Z,77.10
2018-11-13T18:36:41.257Z,77.10
2018-11-13T18:39:17.707Z,77.53
2018-11-13T18:41:50.512Z,74.67
2018-11-13T18:44:25.048Z,73.37
2018-11-13T18:46:56.803Z,68.60
2018-11-13T18:49:30.269Z,64.83
2018-11-13T18:52:01.754Z,78.13
2018-11-13T18:54:35.720Z,158.23
2018-11-13T18:57:10.437Z,143.50
2018-11-13T18:59:41.040Z,366.33
2018-11-13T19:02:12.186Z,256.23
2018-11-13T19:04:43.964Z,104.97
2018-11-13T19:07:14.708Z,85.43
2018-11-13T19:09:45.265Z,75.60
2018-11-13T19:12:15.827Z,90.70
2018-11-13T19:14:47.587Z,71.87
2018-11-13T19:17:18.770Z,70.17
2018-11-13T19:19:52.808Z,76.33
2018-11-13T19:22:23.368Z,81.53
2018-11-13T19:24:55.094Z,92.43
2018-11-13T19:27:26.480Z,106.53
2018-11-13T19:29:56.307Z,103.30
2018-11-13T19:32:33.053Z,115.47
2018-11-13T19:35:03.987Z,106.33
2018-11-13T19:37:33.908Z,101.00
2018-11-13T19:40:10.127Z,95.07
2018-11-13T19:42:41.130Z,84.10
2018-11-13T19:45:11.869Z,87.47
2018-11-13T19:47:43.451Z,95.70
2018-11-13T19:50:20.137Z,100.97
2018-11-13T19:52:51.023Z,98.60
2018-11-13T19:55:22.476Z,93.30
2018-11-13T19:57:58.995Z,93.27
2018-11-13T20:00:30.923Z,118.83
2018-11-13T20:03:05.458Z,157.00
2018-11-13T20:05:37.213Z,164.97
2018-11-13T20:08:12.875Z,142.90
2018-11-13T20:10:48.384Z,127.00
2018-11-13T20:13:18.418Z,119.53
2018-11-13T20:15:48.688Z,130.43
2018-11-13T20:18:20.075Z,258.57
2018-11-13T20:20:52.631Z,192.53
2018-11-13T20:23:26.290Z,161.30
2018-11-13T20:26:01.166Z,114.77
2018-11-13T20:28:38.655Z,119.47
2018-11-13T20:31:12.216Z,108.77
2018-11-13T20:33:42.211Z,90.83
2018-11-13T20:36:13.705Z,91.30
2018-11-13T20:38:43.565Z,83.50
2018-11-13T20:41:20.578Z,76.93
2018-11-13T20:43:51.881Z,80.17
2018-11-13T20:46:23.763Z,84.60
2018-11-13T20:48:55.002Z,80.00
2018-11-13T20:51:25.059Z,79.13
2018-11-13T20:53:55.115Z,69.67
2018-11-13T20:56:24.943Z,46.67
2018-11-13T20:58:57.219Z,42.80
2018-11-13T21:01:26.908Z,22.67
2018-11-13T21:03:58.258Z,26.70
2018-11-13T21:06:31.154Z,31.03
2018-11-13T21:09:00.961Z,21.63
2018-11-13T21:11:30.733Z,25.10
2018-11-13T21:14:00.438Z,21.17
2018-11-13T21:16:32.481Z,17.30
2018-11-13T21:19:03.531Z,10.13
2018-11-13T21:21:33.281Z,13.17
2018-11-13T21:24:03.073Z,17.93
2018-11-13T21:26:32.699Z,17.90
2018-11-13T21:29:02.514Z,13.23
2018-11-13T21:31:32.246Z,16.77
2018-11-13T21:34:01.933Z,18.53
2018-11-13T21:36:31.751Z,23.10
2018-11-13T21:39:01.959Z,17.57
2018-11-13T21:41:31.666Z,17.27
2018-11-13T21:44:05.467Z,11.87
2018-11-13T21:46:35.336Z,9.53
2018-11-13T21:49:05.596Z,12.90
2018-11-13T21:51:41.464Z,9.03
2018-11-13T21:54:11.275Z,9.23
2018-11-13T21:56:41.085Z,12.17
2018-11-13T21:59:10.888Z,10.83
2018-11-13T22:01:40.793Z,10.27
2018-11-13T22:04:10.737Z,11.17
2018-11-13T22:06:40.942Z,8.57
2018-11-13T22:09:12.058Z,9.43
2018-11-13T22:11:45.002Z,12.37
2018-11-13T22:14:15.679Z,9.60
2018-11-13T22:16:45.886Z,7.90
2018-11-13T22:19:15.297Z,5.40
2018-11-13T22:21:45.051Z,4.67
2018-11-13T22:24:14.667Z,5.83
2018-11-13T22:26:44.459Z,3.77
2018-11-13T22:29:14.202Z,4.23
2018-11-13T22:31:43.852Z,6.43
2018-11-13T22:34:13.589Z,5.07
2018-11-13T22:36:43.379Z,4.00
2018-11-13T22:39:13.200Z,3.67
2018-11-13T22:41:43.010Z,4.03
2018-11-13T22:44:12.835Z,4.00
2018-11-13T22:46:42.627Z,3.20
2018-11-13T22:49:12.305Z,4.03
2018-11-13T22:51:42.082Z,3.33
2018-11-13T22:54:11.782Z,3.23
2018-11-13T22:56:41.559Z,4.33
2018-11-13T22:59:11.689Z,2.73
2018-11-13T23:01:41.365Z,8.77
2018-11-13T23:04:11.202Z,4.37
2018-11-13T23:06:40.853Z,6.93
2018-11-13T23:09:12.863Z,3.23
2018-11-13T23:11:42.554Z,4.63
2018-11-13T23:14:12.264Z,4.90
2018-11-13T23:16:42.012Z,5.20
2018-11-13T23:19:11.685Z,6.97
2018-11-13T23:21:41.402Z,5.93
2018-11-13T23:24:11.211Z,7.90
2018-11-13T23:26:41.352Z,4.03
2018-11-13T23:29:10.641Z,5.60
2018-11-13T23:31:40.764Z,12.77
2018-11-13T23:34:10.462Z,7.97
2018-11-13T23:36:40.495Z,7.03
2018-11-13T23:39:10.292Z,8.57
2018-11-13T23:41:40.099Z,6.87
2018-11-13T23:44:09.732Z,8.33
2018-11-13T23:46:39.387Z,5.83
2018-11-13T23:49:09.262Z,10.30
2018-11-13T23:51:38.904Z,8.53
2018-11-13T23:54:08.565Z,7.17
2018-11-13T23:56:38.670Z,10.37
2018-11-13T23:59:08.042Z,9.63
